sensor_id;sensor_type;location;lat;lon;timestamp;P1;durP1;ratioP1;P2;durP2;ratioP2
19193;SDS011;9729;52.296;13.260;2023-07-09T00:02:19;6.17;;;4.13;;
19193;SDS011;9729;52.296;13.260;2023-07-09T00:04:45;5.10;;;3.83;;
19193;SDS011;9729;52.296;13.260;2023-07-09T00:07:15;13.40;;;4.50;;
19193;SDS011;9729;52.296;13.260;2023-07-09T00:09:45;6.10;;;3.80;;
19193;SDS011;9729;52.296;13.260;2023-07-09T00:12:13;11.97;;;4.13;;
19193;SDS011;9729;52.296;13.260;2023-07-09T00:14:40;5.57;;;4.17;;
19193;SDS011;9729;52.296;13.260;2023-07-09T00:17:07;5.50;;;4.27;;
19193;SDS011;9729;52.296;13.260;2023-07-09T00:19:36;6.47;;;4.10;;
19193;SDS011;9729;52.296;13.260;2023-07-09T00:22:02;5.60;;;4.33;;
19193;SDS011;9729;52.296;13.260;2023-07-09T00:24:31;4.57;;;4.03;;
19193;SDS011;9729;52.296;13.260;2023-07-09T00:26:58;6.13;;;4.17;;
19193;SDS011;9729;52.296;13.260;2023-07-09T00:29:25;8.63;;;4.33;;
19193;SDS011;9729;52.296;13.260;2023-07-09T00:31:51;7.97;;;4.70;;
19193;SDS011;9729;52.296;13.260;2023-07-09T00:34:17;5.70;;;4.10;;
19193;SDS011;9729;52.296;13.260;2023-07-09T00:36:46;5.33;;;4.03;;
19193;SDS011;9729;52.296;13.260;2023-07-09T00:39:14;10.23;;;4.50;;
19193;SDS011;9729;52.296;13.260;2023-07-09T00:41:42;6.20;;;4.57;;
19193;SDS011;9729;52.296;13.260;2023-07-09T00:44:28;7.10;;;4.50;;
19193;SDS011;9729;52.296;13.260;2023-07-09T00:47:15;5.33;;;4.37;;
19193;SDS011;9729;52.296;13.260;2023-07-09T00:49:46;7.10;;;4.40;;
19193;SDS011;9729;52.296;13.260;2023-07-09T00:52:17;6.50;;;4.60;;
19193;SDS011;9729;52.296;13.260;2023-07-09T00:54:47;7.87;;;4.20;;
19193;SDS011;9729;52.296;13.260;2023-07-09T00:57:14;6.83;;;4.43;;
19193;SDS011;9729;52.296;13.260;2023-07-09T00:59:44;4.77;;;4.30;;
19193;SDS011;9729;52.296;13.260;2023-07-09T01:02:11;6.30;;;4.53;;
19193;SDS011;9729;52.296;13.260;2023-07-09T01:04:39;6.27;;;4.43;;
19193;SDS011;9729;52.296;13.260;2023-07-09T01:07:06;6.90;;;3.93;;
19193;SDS011;9729;52.296;13.260;2023-07-09T01:09:32;5.50;;;4.20;;
19193;SDS011;9729;52.296;13.260;2023-07-09T01:12:01;6.93;;;4.60;;
19193;SDS011;9729;52.296;13.260;2023-07-09T01:14:29;8.50;;;4.33;;
19193;SDS011;9729;52.296;13.260;2023-07-09T01:16:58;7.27;;;4.40;;
19193;SDS011;9729;52.296;13.260;2023-07-09T01:19:27;10.17;;;4.63;;
19193;SDS011;9729;52.296;13.260;2023-07-09T01:21:57;4.90;;;4.23;;
19193;SDS011;9729;52.296;13.260;2023-07-09T01:24:47;6.33;;;4.20;;
19193;SDS011;9729;52.296;13.260;2023-07-09T01:27:17;8.70;;;4.90;;
19193;SDS011;9729;52.296;13.260;2023-07-09T01:29:44;5.87;;;4.67;;
19193;SDS011;9729;52.296;13.260;2023-07-09T01:32:14;11.23;;;4.40;;
19193;SDS011;9729;52.296;13.260;2023-07-09T01:34:42;6.33;;;4.13;;
19193;SDS011;9729;52.296;13.260;2023-07-09T01:37:10;8.07;;;5.00;;
19193;SDS011;9729;52.296;13.260;2023-07-09T01:39:36;8.07;;;4.83;;
19193;SDS011;9729;52.296;13.260;2023-07-09T01:42:05;10.50;;;5.30;;
19193;SDS011;9729;52.296;13.260;2023-07-09T01:44:33;5.93;;;5.17;;
19193;SDS011;9729;52.296;13.260;2023-07-09T01:47:00;7.80;;;5.23;;
19193;SDS011;9729;52.296;13.260;2023-07-09T01:49:28;10.30;;;6.30;;
19193;SDS011;9729;52.296;13.260;2023-07-09T01:51:54;6.73;;;5.40;;
19193;SDS011;9729;52.296;13.260;2023-07-09T01:54:22;9.40;;;5.50;;
19193;SDS011;9729;52.296;13.260;2023-07-09T01:56:49;6.30;;;4.57;;
19193;SDS011;9729;52.296;13.260;2023-07-09T01:59:15;9.83;;;5.40;;
19193;SDS011;9729;52.296;13.260;2023-07-09T02:01:41;9.73;;;6.03;;
19193;SDS011;9729;52.296;13.260;2023-07-09T02:04:08;9.50;;;5.70;;
19193;SDS011;9729;52.296;13.260;2023-07-09T02:06:34;9.40;;;5.37;;
19193;SDS011;9729;52.296;13.260;2023-07-09T02:09:00;6.40;;;4.90;;
19193;SDS011;9729;52.296;13.260;2023-07-09T02:11:28;9.87;;;5.20;;
19193;SDS011;9729;52.296;13.260;2023-07-09T02:13:54;7.73;;;5.60;;
19193;SDS011;9729;52.296;13.260;2023-07-09T02:16:21;7.47;;;5.50;;
19193;SDS011;9729;52.296;13.260;2023-07-09T02:18:47;7.50;;;5.03;;
19193;SDS011;9729;52.296;13.260;2023-07-09T02:21:13;8.90;;;5.80;;
19193;SDS011;9729;52.296;13.260;2023-07-09T02:23:40;10.20;;;5.37;;
19193;SDS011;9729;52.296;13.260;2023-07-09T02:26:06;6.93;;;5.17;;
19193;SDS011;9729;52.296;13.260;2023-07-09T02:28:34;9.07;;;5.10;;
19193;SDS011;9729;52.296;13.260;2023-07-09T02:31:00;5.83;;;5.20;;
19193;SDS011;9729;52.296;13.260;2023-07-09T02:33:26;7.27;;;5.30;;
19193;SDS011;9729;52.296;13.260;2023-07-09T02:35:55;8.63;;;5.63;;
19193;SDS011;9729;52.296;13.260;2023-07-09T02:38:22;6.87;;;5.37;;
19193;SDS011;9729;52.296;13.260;2023-07-09T02:40:48;7.67;;;5.53;;
19193;SDS011;9729;52.296;13.260;2023-07-09T02:43:14;10.87;;;5.80;;
19193;SDS011;9729;52.296;13.260;2023-07-09T02:45:42;11.17;;;5.97;;
19193;SDS011;9729;52.296;13.260;2023-07-09T02:48:08;8.27;;;6.20;;
19193;SDS011;9729;52.296;13.260;2023-07-09T02:50:35;9.33;;;6.90;;
19193;SDS011;9729;52.296;13.260;2023-07-09T02:53:01;9.23;;;6.73;;
19193;SDS011;9729;52.296;13.260;2023-07-09T02:55:27;7.80;;;6.00;;
19193;SDS011;9729;52.296;13.260;2023-07-09T02:57:54;15.07;;;6.33;;
19193;SDS011;9729;52.296;13.260;2023-07-09T03:00:21;8.77;;;6.23;;
19193;SDS011;9729;52.296;13.260;2023-07-09T03:02:49;9.13;;;5.83;;
19193;SDS011;9729;52.296;13.260;2023-07-09T03:05:15;6.80;;;5.83;;
19193;SDS011;9729;52.296;13.260;2023-07-09T03:07:41;14.67;;;7.00;;
19193;SDS011;9729;52.296;13.260;2023-07-09T03:10:08;8.60;;;6.00;;
19193;SDS011;9729;52.296;13.260;2023-07-09T03:12:34;10.73;;;6.33;;
19193;SDS011;9729;52.296;13.260;2023-07-09T03:15:01;13.57;;;7.27;;
19193;SDS011;9729;52.296;13.260;2023-07-09T03:17:27;10.03;;;6.73;;
19193;SDS011;9729;52.296;13.260;2023-07-09T03:19:55;7.17;;;6.43;;
19193;SDS011;9729;52.296;13.260;2023-07-09T03:22:21;7.43;;;6.47;;
19193;SDS011;9729;52.296;13.260;2023-07-09T03:24:48;11.57;;;7.20;;
19193;SDS011;9729;52.296;13.260;2023-07-09T03:27:14;9.83;;;6.17;;
19193;SDS011;9729;52.296;13.260;2023-07-09T03:29:40;10.17;;;6.90;;
19193;SDS011;9729;52.296;13.260;2023-07-09T03:32:07;11.85;;;7.20;;
19193;SDS011;9729;52.296;13.260;2023-07-09T03:34:33;13.87;;;6.03;;
19193;SDS011;9729;52.296;13.260;2023-07-09T03:37:01;9.23;;;6.20;;
19193;SDS011;9729;52.296;13.260;2023-07-09T03:39:27;12.03;;;6.37;;
19193;SDS011;9729;52.296;13.260;2023-07-09T03:41:53;8.80;;;5.83;;
19193;SDS011;9729;52.296;13.260;2023-07-09T03:44:20;8.40;;;5.93;;
19193;SDS011;9729;52.296;13.260;2023-07-09T03:46:46;12.10;;;6.50;;
19193;SDS011;9729;52.296;13.260;2023-07-09T03:49:13;8.70;;;6.30;;
19193;SDS011;9729;52.296;13.260;2023-07-09T03:51:39;7.37;;;5.90;;
19193;SDS011;9729;52.296;13.260;2023-07-09T03:54:07;9.50;;;7.00;;
19193;SDS011;9729;52.296;13.260;2023-07-09T03:56:33;9.03;;;6.77;;
19193;SDS011;9729;52.296;13.260;2023-07-09T03:59:00;8.90;;;6.43;;
19193;SDS011;9729;52.296;13.260;2023-07-09T04:01:26;9.50;;;6.72;;
19193;SDS011;9729;52.296;13.260;2023-07-09T04:03:52;11.70;;;5.90;;
19193;SDS011;9729;52.296;13.260;2023-07-09T04:06:19;8.50;;;6.03;;
19193;SDS011;9729;52.296;13.260;2023-07-09T04:08:45;9.23;;;6.07;;
19193;SDS011;9729;52.296;13.260;2023-07-09T04:11:13;10.83;;;6.13;;
19193;SDS011;9729;52.296;13.260;2023-07-09T04:13:39;11.30;;;6.23;;
19193;SDS011;9729;52.296;13.260;2023-07-09T04:16:05;9.67;;;6.07;;
19193;SDS011;9729;52.296;13.260;2023-07-09T04:18:32;13.53;;;6.20;;
19193;SDS011;9729;52.296;13.260;2023-07-09T04:20:58;8.00;;;5.70;;
19193;SDS011;9729;52.296;13.260;2023-07-09T04:23:24;8.03;;;5.73;;
19193;SDS011;9729;52.296;13.260;2023-07-09T04:25:51;9.67;;;5.80;;
19193;SDS011;9729;52.296;13.260;2023-07-09T04:28:18;7.03;;;5.73;;
19193;SDS011;9729;52.296;13.260;2023-07-09T04:30:45;9.50;;;6.10;;
19193;SDS011;9729;52.296;13.260;2023-07-09T04:33:13;9.87;;;5.67;;
19193;SDS011;9729;52.296;13.260;2023-07-09T04:35:42;8.47;;;5.80;;
19193;SDS011;9729;52.296;13.260;2023-07-09T04:38:09;8.33;;;5.57;;
19193;SDS011;9729;52.296;13.260;2023-07-09T04:40:35;6.60;;;5.60;;
19193;SDS011;9729;52.296;13.260;2023-07-09T04:43:01;13.73;;;5.10;;
19193;SDS011;9729;52.296;13.260;2023-07-09T04:45:29;7.17;;;4.90;;
19193;SDS011;9729;52.296;13.260;2023-07-09T04:47:56;8.90;;;5.03;;
19193;SDS011;9729;52.296;13.260;2023-07-09T04:50:22;7.57;;;5.03;;
19193;SDS011;9729;52.296;13.260;2023-07-09T04:52:48;6.25;;;4.50;;
19193;SDS011;9729;52.296;13.260;2023-07-09T04:55:17;6.15;;;4.25;;
19193;SDS011;9729;52.296;13.260;2023-07-09T04:57:44;8.50;;;4.90;;
19193;SDS011;9729;52.296;13.260;2023-07-09T05:00:10;6.38;;;4.40;;
19193;SDS011;9729;52.296;13.260;2023-07-09T05:02:39;9.45;;;4.45;;
19193;SDS011;9729;52.296;13.260;2023-07-09T05:05:06;5.82;;;4.68;;
19193;SDS011;9729;52.296;13.260;2023-07-09T05:07:32;4.97;;;4.13;;
19193;SDS011;9729;52.296;13.260;2023-07-09T05:09:59;9.30;;;5.13;;
19193;SDS011;9729;52.296;13.260;2023-07-09T05:12:25;4.88;;;4.47;;
19193;SDS011;9729;52.296;13.260;2023-07-09T05:14:52;7.20;;;5.43;;
19193;SDS011;9729;52.296;13.260;2023-07-09T05:17:18;6.53;;;4.72;;
19193;SDS011;9729;52.296;13.260;2023-07-09T05:19:46;6.80;;;4.88;;
19193;SDS011;9729;52.296;13.260;2023-07-09T05:22:13;7.97;;;5.03;;
19193;SDS011;9729;52.296;13.260;2023-07-09T05:24:39;6.18;;;4.20;;
19193;SDS011;9729;52.296;13.260;2023-07-09T05:27:06;7.57;;;4.75;;
19193;SDS011;9729;52.296;13.260;2023-07-09T05:29:33;6.15;;;4.55;;
19193;SDS011;9729;52.296;13.260;2023-07-09T05:32:00;7.40;;;4.82;;
19193;SDS011;9729;52.296;13.260;2023-07-09T05:34:26;6.85;;;4.85;;
19193;SDS011;9729;52.296;13.260;2023-07-09T05:36:54;12.32;;;4.78;;
19193;SDS011;9729;52.296;13.260;2023-07-09T05:39:20;6.15;;;4.05;;
19193;SDS011;9729;52.296;13.260;2023-07-09T05:41:47;7.50;;;4.90;;
19193;SDS011;9729;52.296;13.260;2023-07-09T05:44:13;6.07;;;4.20;;
19193;SDS011;9729;52.296;13.260;2023-07-09T05:46:39;7.97;;;4.70;;
19193;SDS011;9729;52.296;13.260;2023-07-09T05:49:06;7.25;;;4.60;;
19193;SDS011;9729;52.296;13.260;2023-07-09T05:51:33;5.03;;;4.53;;
19193;SDS011;9729;52.296;13.260;2023-07-09T05:54:00;6.15;;;4.90;;
19193;SDS011;9729;52.296;13.260;2023-07-09T05:56:27;9.90;;;4.80;;
19193;SDS011;9729;52.296;13.260;2023-07-09T05:58:54;7.45;;;4.60;;
19193;SDS011;9729;52.296;13.260;2023-07-09T06:01:21;5.38;;;4.75;;
19193;SDS011;9729;52.296;13.260;2023-07-09T06:03:47;6.18;;;5.25;;
19193;SDS011;9729;52.296;13.260;2023-07-09T06:06:14;6.47;;;4.15;;
19193;SDS011;9729;52.296;13.260;2023-07-09T06:08:42;9.20;;;5.00;;
19193;SDS011;9729;52.296;13.260;2023-07-09T06:11:09;6.75;;;4.63;;
19193;SDS011;9729;52.296;13.260;2023-07-09T06:13:36;7.88;;;4.90;;
19193;SDS011;9729;52.296;13.260;2023-07-09T06:16:02;6.50;;;4.72;;
19193;SDS011;9729;52.296;13.260;2023-07-09T06:18:29;6.82;;;4.80;;
19193;SDS011;9729;52.296;13.260;2023-07-09T06:20:56;5.90;;;5.05;;
19193;SDS011;9729;52.296;13.260;2023-07-09T06:23:24;7.18;;;5.25;;
19193;SDS011;9729;52.296;13.260;2023-07-09T06:25:50;6.15;;;5.00;;
19193;SDS011;9729;52.296;13.260;2023-07-09T06:28:19;6.47;;;4.88;;
19193;SDS011;9729;52.296;13.260;2023-07-09T06:30:47;7.30;;;5.15;;
19193;SDS011;9729;52.296;13.260;2023-07-09T06:33:14;9.73;;;5.40;;
19193;SDS011;9729;52.296;13.260;2023-07-09T06:35:46;6.75;;;5.25;;
19193;SDS011;9729;52.296;13.260;2023-07-09T06:38:12;8.10;;;4.90;;
19193;SDS011;9729;52.296;13.260;2023-07-09T06:40:39;8.13;;;5.93;;
19193;SDS011;9729;52.296;13.260;2023-07-09T06:43:05;9.48;;;5.68;;
19193;SDS011;9729;52.296;13.260;2023-07-09T06:45:33;9.30;;;5.88;;
19193;SDS011;9729;52.296;13.260;2023-07-09T06:47:59;8.30;;;5.13;;
19193;SDS011;9729;52.296;13.260;2023-07-09T06:50:26;7.53;;;5.47;;
19193;SDS011;9729;52.296;13.260;2023-07-09T06:52:52;5.72;;;5.20;;
19193;SDS011;9729;52.296;13.260;2023-07-09T06:55:19;11.88;;;5.47;;
19193;SDS011;9729;52.296;13.260;2023-07-09T06:57:45;10.30;;;5.28;;
19193;SDS011;9729;52.296;13.260;2023-07-09T07:00:12;7.78;;;5.35;;
19193;SDS011;9729;52.296;13.260;2023-07-09T07:02:40;6.45;;;5.20;;
19193;SDS011;9729;52.296;13.260;2023-07-09T07:05:06;7.90;;;5.55;;
19193;SDS011;9729;52.296;13.260;2023-07-09T07:07:33;5.90;;;5.00;;
19193;SDS011;9729;52.296;13.260;2023-07-09T07:10:02;6.07;;;5.25;;
19193;SDS011;9729;52.296;13.260;2023-07-09T07:12:39;10.02;;;5.22;;
19193;SDS011;9729;52.296;13.260;2023-07-09T07:15:07;7.38;;;5.68;;
19193;SDS011;9729;52.296;13.260;2023-07-09T07:17:34;8.98;;;6.15;;
19193;SDS011;9729;52.296;13.260;2023-07-09T07:20:03;5.88;;;5.28;;
19193;SDS011;9729;52.296;13.260;2023-07-09T07:22:29;6.40;;;5.57;;
19193;SDS011;9729;52.296;13.260;2023-07-09T07:24:56;8.30;;;5.78;;
19193;SDS011;9729;52.296;13.260;2023-07-09T07:27:22;7.35;;;5.78;;
19193;SDS011;9729;52.296;13.260;2023-07-09T07:29:48;10.40;;;6.03;;
19193;SDS011;9729;52.296;13.260;2023-07-09T07:32:15;6.93;;;5.35;;
19193;SDS011;9729;52.296;13.260;2023-07-09T07:34:41;10.38;;;5.43;;
19193;SDS011;9729;52.296;13.260;2023-07-09T07:37:09;8.65;;;5.88;;
19193;SDS011;9729;52.296;13.260;2023-07-09T07:39:35;10.48;;;5.47;;
19193;SDS011;9729;52.296;13.260;2023-07-09T07:42:01;8.32;;;5.68;;
19193;SDS011;9729;52.296;13.260;2023-07-09T07:44:28;5.65;;;5.10;;
19193;SDS011;9729;52.296;13.260;2023-07-09T07:46:54;11.00;;;5.40;;
19193;SDS011;9729;52.296;13.260;2023-07-09T07:49:21;7.32;;;5.75;;
19193;SDS011;9729;52.296;13.260;2023-07-09T07:51:48;6.72;;;5.85;;
19193;SDS011;9729;52.296;13.260;2023-07-09T07:54:15;6.55;;;5.30;;
19193;SDS011;9729;52.296;13.260;2023-07-09T07:56:43;9.07;;;5.78;;
19193;SDS011;9729;52.296;13.260;2023-07-09T07:59:09;9.82;;;5.32;;
19193;SDS011;9729;52.296;13.260;2023-07-09T08:01:36;6.68;;;5.97;;
19193;SDS011;9729;52.296;13.260;2023-07-09T08:04:02;6.43;;;5.07;;
19193;SDS011;9729;52.296;13.260;2023-07-09T08:06:29;13.25;;;5.75;;
19193;SDS011;9729;52.296;13.260;2023-07-09T08:08:56;7.90;;;5.20;;
19193;SDS011;9729;52.296;13.260;2023-07-09T08:11:24;6.55;;;5.63;;
19193;SDS011;9729;52.296;13.260;2023-07-09T08:13:52;8.75;;;5.63;;
19193;SDS011;9729;52.296;13.260;2023-07-09T08:16:19;7.78;;;5.38;;
19193;SDS011;9729;52.296;13.260;2023-07-09T08:18:45;7.88;;;5.00;;
19193;SDS011;9729;52.296;13.260;2023-07-09T08:21:12;5.85;;;4.95;;
19193;SDS011;9729;52.296;13.260;2023-07-09T08:23:38;6.75;;;4.82;;
19193;SDS011;9729;52.296;13.260;2023-07-09T08:26:05;6.90;;;5.13;;
19193;SDS011;9729;52.296;13.260;2023-07-09T08:28:33;7.95;;;5.00;;
19193;SDS011;9729;52.296;13.260;2023-07-09T08:31:00;7.72;;;5.03;;
19193;SDS011;9729;52.296;13.260;2023-07-09T08:33:26;8.15;;;5.70;;
19193;SDS011;9729;52.296;13.260;2023-07-09T08:35:53;6.35;;;5.00;;
19193;SDS011;9729;52.296;13.260;2023-07-09T08:38:20;7.18;;;5.15;;
19193;SDS011;9729;52.296;13.260;2023-07-09T08:40:49;5.50;;;4.95;;
19193;SDS011;9729;52.296;13.260;2023-07-09T08:43:28;7.35;;;5.10;;
19193;SDS011;9729;52.296;13.260;2023-07-09T08:46:07;7.38;;;5.40;;
19193;SDS011;9729;52.296;13.260;2023-07-09T08:48:37;7.35;;;4.97;;
19193;SDS011;9729;52.296;13.260;2023-07-09T08:51:08;6.25;;;4.60;;
19193;SDS011;9729;52.296;13.260;2023-07-09T08:53:38;6.80;;;4.75;;
19193;SDS011;9729;52.296;13.260;2023-07-09T08:56:10;7.45;;;4.70;;
19193;SDS011;9729;52.296;13.260;2023-07-09T08:58:41;6.03;;;4.93;;
19193;SDS011;9729;52.296;13.260;2023-07-09T09:01:12;6.00;;;4.43;;
19193;SDS011;9729;52.296;13.260;2023-07-09T09:03:43;8.73;;;5.10;;
19193;SDS011;9729;52.296;13.260;2023-07-09T09:06:11;5.22;;;4.72;;
19193;SDS011;9729;52.296;13.260;2023-07-09T09:08:39;7.55;;;4.70;;
19193;SDS011;9729;52.296;13.260;2023-07-09T09:11:10;8.82;;;4.63;;
19193;SDS011;9729;52.296;13.260;2023-07-09T09:13:40;4.40;;;4.00;;
19193;SDS011;9729;52.296;13.260;2023-07-09T09:16:09;7.40;;;4.82;;
19193;SDS011;9729;52.296;13.260;2023-07-09T09:18:40;5.55;;;4.50;;
19193;SDS011;9729;52.296;13.260;2023-07-09T09:21:10;6.85;;;4.43;;
19193;SDS011;9729;52.296;13.260;2023-07-09T09:23:43;7.32;;;4.75;;
19193;SDS011;9729;52.296;13.260;2023-07-09T09:26:14;4.90;;;4.40;;
19193;SDS011;9729;52.296;13.260;2023-07-09T09:28:45;5.32;;;3.97;;
19193;SDS011;9729;52.296;13.260;2023-07-09T09:31:12;5.60;;;4.03;;
19193;SDS011;9729;52.296;13.260;2023-07-09T09:33:40;5.57;;;4.57;;
19193;SDS011;9729;52.296;13.260;2023-07-09T09:36:11;7.15;;;3.97;;
19193;SDS011;9729;52.296;13.260;2023-07-09T09:38:41;10.20;;;3.97;;
19193;SDS011;9729;52.296;13.260;2023-07-09T09:41:10;7.40;;;4.78;;
19193;SDS011;9729;52.296;13.260;2023-07-09T09:43:41;9.80;;;5.05;;
19193;SDS011;9729;52.296;13.260;2023-07-09T09:46:09;6.20;;;4.50;;
19193;SDS011;9729;52.296;13.260;2023-07-09T09:48:43;4.22;;;3.83;;
19193;SDS011;9729;52.296;13.260;2023-07-09T09:51:10;8.50;;;4.47;;
19193;SDS011;9729;52.296;13.260;2023-07-09T09:53:38;7.00;;;4.35;;
19193;SDS011;9729;52.296;13.260;2023-07-09T09:56:06;5.70;;;4.65;;
19193;SDS011;9729;52.296;13.260;2023-07-09T09:58:39;8.75;;;4.57;;
19193;SDS011;9729;52.296;13.260;2023-07-09T10:01:13;6.43;;;4.60;;
19193;SDS011;9729;52.296;13.260;2023-07-09T10:03:43;5.47;;;4.32;;
19193;SDS011;9729;52.296;13.260;2023-07-09T10:06:14;6.20;;;4.45;;
19193;SDS011;9729;52.296;13.260;2023-07-09T10:08:46;7.10;;;4.35;;
19193;SDS011;9729;52.296;13.260;2023-07-09T10:11:21;4.95;;;4.28;;
19193;SDS011;9729;52.296;13.260;2023-07-09T10:13:51;7.03;;;4.63;;
19193;SDS011;9729;52.296;13.260;2023-07-09T10:16:24;7.43;;;4.55;;
19193;SDS011;9729;52.296;13.260;2023-07-09T10:18:56;8.98;;;4.22;;
19193;SDS011;9729;52.296;13.260;2023-07-09T10:21:26;6.03;;;4.20;;
19193;SDS011;9729;52.296;13.260;2023-07-09T10:24:01;7.43;;;4.72;;
19193;SDS011;9729;52.296;13.260;2023-07-09T10:26:36;6.72;;;4.20;;
19193;SDS011;9729;52.296;13.260;2023-07-09T10:29:17;8.57;;;4.50;;
19193;SDS011;9729;52.296;13.260;2023-07-09T10:31:54;7.97;;;4.43;;
19193;SDS011;9729;52.296;13.260;2023-07-09T10:34:25;6.28;;;4.53;;
19193;SDS011;9729;52.296;13.260;2023-07-09T10:37:07;5.72;;;4.93;;
19193;SDS011;9729;52.296;13.260;2023-07-09T10:39:42;10.27;;;4.72;;
19193;SDS011;9729;52.296;13.260;2023-07-09T10:42:12;5.13;;;4.63;;
19193;SDS011;9729;52.296;13.260;2023-07-09T10:44:42;10.00;;;4.90;;
19193;SDS011;9729;52.296;13.260;2023-07-09T10:47:12;5.95;;;5.00;;
19193;SDS011;9729;52.296;13.260;2023-07-09T10:49:42;5.10;;;4.30;;
19193;SDS011;9729;52.296;13.260;2023-07-09T10:52:11;8.35;;;4.80;;
19193;SDS011;9729;52.296;13.260;2023-07-09T10:54:41;8.25;;;4.28;;
19193;SDS011;9729;52.296;13.260;2023-07-09T10:57:17;9.15;;;4.57;;
19193;SDS011;9729;52.296;13.260;2023-07-09T10:59:46;4.93;;;4.43;;
19193;SDS011;9729;52.296;13.260;2023-07-09T11:02:18;5.53;;;4.28;;
19193;SDS011;9729;52.296;13.260;2023-07-09T11:04:47;5.00;;;4.50;;
19193;SDS011;9729;52.296;13.260;2023-07-09T11:07:17;10.18;;;5.07;;
19193;SDS011;9729;52.296;13.260;2023-07-09T11:09:46;6.28;;;4.28;;
19193;SDS011;9729;52.296;13.260;2023-07-09T11:12:15;6.25;;;5.03;;
19193;SDS011;9729;52.296;13.260;2023-07-09T11:14:45;5.20;;;4.50;;
19193;SDS011;9729;52.296;13.260;2023-07-09T11:17:14;5.07;;;4.35;;
19193;SDS011;9729;52.296;13.260;2023-07-09T11:19:43;5.47;;;4.78;;
19193;SDS011;9729;52.296;13.260;2023-07-09T11:22:15;5.38;;;4.38;;
19193;SDS011;9729;52.296;13.260;2023-07-09T11:24:46;5.53;;;4.18;;
19193;SDS011;9729;52.296;13.260;2023-07-09T11:27:19;6.20;;;4.68;;
19193;SDS011;9729;52.296;13.260;2023-07-09T11:29:47;5.00;;;4.18;;
19193;SDS011;9729;52.296;13.260;2023-07-09T11:32:20;5.53;;;4.65;;
19193;SDS011;9729;52.296;13.260;2023-07-09T11:34:47;5.90;;;4.47;;
19193;SDS011;9729;52.296;13.260;2023-07-09T11:37:14;6.13;;;5.15;;
19193;SDS011;9729;52.296;13.260;2023-07-09T11:39:42;6.38;;;4.57;;
19193;SDS011;9729;52.296;13.260;2023-07-09T11:42:26;5.78;;;4.60;;
19193;SDS011;9729;52.296;13.260;2023-07-09T11:44:56;7.15;;;4.88;;
19193;SDS011;9729;52.296;13.260;2023-07-09T11:47:28;9.52;;;4.88;;
19193;SDS011;9729;52.296;13.260;2023-07-09T11:49:58;6.40;;;4.07;;
19193;SDS011;9729;52.296;13.260;2023-07-09T11:52:27;7.20;;;4.90;;
19193;SDS011;9729;52.296;13.260;2023-07-09T11:54:57;5.32;;;4.60;;
19193;SDS011;9729;52.296;13.260;2023-07-09T11:57:28;5.15;;;4.65;;
19193;SDS011;9729;52.296;13.260;2023-07-09T11:59:58;5.70;;;4.90;;
19193;SDS011;9729;52.296;13.260;2023-07-09T12:02:26;8.40;;;4.78;;
19193;SDS011;9729;52.296;13.260;2023-07-09T12:04:58;5.00;;;4.50;;
19193;SDS011;9729;52.296;13.260;2023-07-09T12:07:25;6.93;;;4.60;;
19193;SDS011;9729;52.296;13.260;2023-07-09T12:09:52;5.68;;;4.50;;
19193;SDS011;9729;52.296;13.260;2023-07-09T12:12:20;6.03;;;4.45;;
19193;SDS011;9729;52.296;13.260;2023-07-09T12:14:47;5.05;;;4.13;;
19193;SDS011;9729;52.296;13.260;2023-07-09T12:17:14;5.22;;;4.70;;
19193;SDS011;9729;52.296;13.260;2023-07-09T12:19:41;6.43;;;4.65;;
19193;SDS011;9729;52.296;13.260;2023-07-09T12:22:10;4.93;;;4.50;;
19193;SDS011;9729;52.296;13.260;2023-07-09T12:24:42;7.25;;;4.40;;
19193;SDS011;9729;52.296;13.260;2023-07-09T12:27:17;5.85;;;4.32;;
19193;SDS011;9729;52.296;13.260;2023-07-09T12:29:45;9.00;;;5.18;;
19193;SDS011;9729;52.296;13.260;2023-07-09T12:32:12;6.15;;;4.78;;
19193;SDS011;9729;52.296;13.260;2023-07-09T12:34:39;5.20;;;4.15;;
19193;SDS011;9729;52.296;13.260;2023-07-09T12:37:08;5.22;;;4.10;;
19193;SDS011;9729;52.296;13.260;2023-07-09T12:39:38;4.90;;;4.50;;
19193;SDS011;9729;52.296;13.260;2023-07-09T12:42:04;5.72;;;4.90;;
19193;SDS011;9729;52.296;13.260;2023-07-09T12:44:32;5.60;;;5.10;;
19193;SDS011;9729;52.296;13.260;2023-07-09T12:47:01;5.07;;;4.68;;
19193;SDS011;9729;52.296;13.260;2023-07-09T12:49:28;9.38;;;5.00;;
19193;SDS011;9729;52.296;13.260;2023-07-09T12:51:55;5.28;;;4.57;;
19193;SDS011;9729;52.296;13.260;2023-07-09T12:54:23;6.07;;;4.63;;
19193;SDS011;9729;52.296;13.260;2023-07-09T12:56:50;8.88;;;5.57;;
19193;SDS011;9729;52.296;13.260;2023-07-09T12:59:18;5.55;;;5.05;;
19193;SDS011;9729;52.296;13.260;2023-07-09T13:01:47;8.75;;;5.07;;
19193;SDS011;9729;52.296;13.260;2023-07-09T13:04:15;7.35;;;4.90;;
19193;SDS011;9729;52.296;13.260;2023-07-09T13:06:41;10.05;;;6.95;;
19193;SDS011;9729;52.296;13.260;2023-07-09T13:09:11;6.20;;;4.85;;
19193;SDS011;9729;52.296;13.260;2023-07-09T13:11:44;8.77;;;5.32;;
19193;SDS011;9729;52.296;13.260;2023-07-09T13:14:16;11.18;;;7.80;;
19193;SDS011;9729;52.296;13.260;2023-07-09T13:16:44;5.10;;;4.70;;
19193;SDS011;9729;52.296;13.260;2023-07-09T13:19:10;7.90;;;4.40;;
19193;SDS011;9729;52.296;13.260;2023-07-09T13:21:37;6.20;;;5.28;;
19193;SDS011;9729;52.296;13.260;2023-07-09T13:24:04;6.22;;;4.63;;
19193;SDS011;9729;52.296;13.260;2023-07-09T13:26:38;5.85;;;4.72;;
19193;SDS011;9729;52.296;13.260;2023-07-09T13:29:09;6.28;;;4.28;;
19193;SDS011;9729;52.296;13.260;2023-07-09T13:31:38;6.75;;;4.63;;
19193;SDS011;9729;52.296;13.260;2023-07-09T13:34:07;7.18;;;4.85;;
19193;SDS011;9729;52.296;13.260;2023-07-09T13:36:35;4.82;;;4.25;;
19193;SDS011;9729;52.296;13.260;2023-07-09T13:39:02;7.18;;;4.63;;
19193;SDS011;9729;52.296;13.260;2023-07-09T13:41:28;5.15;;;4.63;;
19193;SDS011;9729;52.296;13.260;2023-07-09T13:43:54;8.00;;;4.80;;
19193;SDS011;9729;52.296;13.260;2023-07-09T13:46:22;5.97;;;5.13;;
19193;SDS011;9729;52.296;13.260;2023-07-09T13:48:51;6.47;;;4.80;;
19193;SDS011;9729;52.296;13.260;2023-07-09T13:51:18;5.55;;;4.50;;
19193;SDS011;9729;52.296;13.260;2023-07-09T13:53:46;6.40;;;4.70;;
19193;SDS011;9729;52.296;13.260;2023-07-09T13:56:12;5.10;;;4.60;;
19193;SDS011;9729;52.296;13.260;2023-07-09T13:58:40;5.63;;;4.55;;
19193;SDS011;9729;52.296;13.260;2023-07-09T14:01:09;5.95;;;4.82;;
19193;SDS011;9729;52.296;13.260;2023-07-09T14:03:38;7.05;;;4.32;;
19193;SDS011;9729;52.296;13.260;2023-07-09T14:06:04;4.97;;;4.47;;
19193;SDS011;9729;52.296;13.260;2023-07-09T14:08:31;5.97;;;4.32;;
19193;SDS011;9729;52.296;13.260;2023-07-09T14:10:57;5.93;;;4.72;;
19193;SDS011;9729;52.296;13.260;2023-07-09T14:13:24;5.30;;;4.75;;
19193;SDS011;9729;52.296;13.260;2023-07-09T14:15:50;5.55;;;4.65;;
19193;SDS011;9729;52.296;13.260;2023-07-09T14:18:18;5.43;;;4.50;;
19193;SDS011;9729;52.296;13.260;2023-07-09T14:20:47;9.75;;;4.50;;
19193;SDS011;9729;52.296;13.260;2023-07-09T14:23:14;6.53;;;4.03;;
19193;SDS011;9729;52.296;13.260;2023-07-09T14:25:42;5.15;;;4.40;;
19193;SDS011;9729;52.296;13.260;2023-07-09T14:28:10;6.88;;;4.30;;
19193;SDS011;9729;52.296;13.260;2023-07-09T14:30:37;5.68;;;4.15;;
19193;SDS011;9729;52.296;13.260;2023-07-09T14:33:04;7.03;;;4.72;;
19193;SDS011;9729;52.296;13.260;2023-07-09T14:35:31;6.72;;;4.63;;
19193;SDS011;9729;52.296;13.260;2023-07-09T14:37:58;6.00;;;4.40;;
19193;SDS011;9729;52.296;13.260;2023-07-09T14:40:26;6.38;;;4.80;;
19193;SDS011;9729;52.296;13.260;2023-07-09T14:42:52;8.85;;;4.03;;
19193;SDS011;9729;52.296;13.260;2023-07-09T14:45:19;6.60;;;4.78;;
19193;SDS011;9729;52.296;13.260;2023-07-09T14:47:48;5.80;;;4.20;;
19193;SDS011;9729;52.296;13.260;2023-07-09T14:50:15;5.68;;;4.15;;
19193;SDS011;9729;52.296;13.260;2023-07-09T14:52:42;10.27;;;4.28;;